Decoded Metar for YPTN (KATHERINE/TINDAL in AUSTRALIA) (IATA:N/A) | Meteo·Mobile Aviation Weather
aviador You're here:

YPTN Decoded Metar

KATHERINE/TINDAL in AUSTRALIA
Report Time2018-12-10 11:00:00
UTC Time2018-12-10 11:23:09
Flight Rules vfr VFR
Wind300° at 10 kt
W.Decomp.*RWY 32: 9.2 kt HW 3.9 kt LCW
W.Rank300° ranks 17
Current wind is above 300° avg. (6.0)
Visibility9999 m
Phenomena:N/A
Clouds:Broken 115 Hf
Expected CloudBase > 4,400 ft AGL from Temp-Dew spread
Ceiling11,500 ft
Temp32°C (ISA +18)
Dew Point21°C (52% RH)
Heat Index34.9°C
QNH1005 hPa
Density Alt2,976 ft
Elevation358 ft
Report Wrong Elevation
Raw Report
METAR YPTN 101100Z AUTO 30010KT 9999 // BKN115 32/21 Q1005=

Extra information for YPTN:More info

Metar Taf Metar & Taf Last 4 Metars F.Rules Stats Wind Profile Meteogram Temp Stats Airport Information Weather charts Add Link Nearby VenuesMetar ALERT Operation Metar Decoded Social comments